sensor_id;sensor_type;location;lat;lon;timestamp;P1;durP1;ratioP1;P2;durP2;ratioP2
8562;SDS011;16392;52.508;13.468;2022-12-07T00:01:33;371.20;;;63.37;;
8562;SDS011;16392;52.508;13.468;2022-12-07T00:04:03;367.63;;;66.10;;
8562;SDS011;16392;52.508;13.468;2022-12-07T00:06:31;370.23;;;63.47;;
8562;SDS011;16392;52.508;13.468;2022-12-07T00:08:59;371.70;;;66.93;;
8562;SDS011;16392;52.508;13.468;2022-12-07T00:11:27;370.93;;;64.00;;
8562;SDS011;16392;52.508;13.468;2022-12-07T00:13:55;369.57;;;62.67;;
8562;SDS011;16392;52.508;13.468;2022-12-07T00:16:23;371.07;;;69.50;;
8562;SDS011;16392;52.508;13.468;2022-12-07T00:18:51;366.83;;;65.77;;
8562;SDS011;16392;52.508;13.468;2022-12-07T00:21:18;371.73;;;64.43;;
8562;SDS011;16392;52.508;13.468;2022-12-07T00:23:46;367.40;;;64.30;;
8562;SDS011;16392;52.508;13.468;2022-12-07T00:26:15;369.87;;;63.70;;
8562;SDS011;16392;52.508;13.468;2022-12-07T00:28:46;366.80;;;64.53;;
8562;SDS011;16392;52.508;13.468;2022-12-07T00:31:13;369.43;;;66.63;;
8562;SDS011;16392;52.508;13.468;2022-12-07T00:33:41;368.87;;;65.77;;
8562;SDS011;16392;52.508;13.468;2022-12-07T00:36:08;367.40;;;64.47;;
8562;SDS011;16392;52.508;13.468;2022-12-07T00:38:37;367.73;;;66.13;;
8562;SDS011;16392;52.508;13.468;2022-12-07T00:41:05;369.93;;;66.20;;
8562;SDS011;16392;52.508;13.468;2022-12-07T00:43:33;366.53;;;62.53;;
8562;SDS011;16392;52.508;13.468;2022-12-07T00:46:01;367.73;;;64.17;;
8562;SDS011;16392;52.508;13.468;2022-12-07T00:48:28;368.80;;;67.70;;
8562;SDS011;16392;52.508;13.468;2022-12-07T00:50:55;369.90;;;67.10;;
8562;SDS011;16392;52.508;13.468;2022-12-07T00:53:21;368.30;;;65.17;;
8562;SDS011;16392;52.508;13.468;2022-12-07T00:55:48;368.70;;;66.37;;
8562;SDS011;16392;52.508;13.468;2022-12-07T00:58:15;370.30;;;68.00;;
8562;SDS011;16392;52.508;13.468;2022-12-07T01:00:42;371.20;;;67.53;;
8562;SDS011;16392;52.508;13.468;2022-12-07T01:03:12;366.40;;;62.87;;
8562;SDS011;16392;52.508;13.468;2022-12-07T01:05:40;369.33;;;69.70;;
8562;SDS011;16392;52.508;13.468;2022-12-07T01:08:14;368.10;;;67.17;;
8562;SDS011;16392;52.508;13.468;2022-12-07T01:10:41;369.70;;;65.60;;
8562;SDS011;16392;52.508;13.468;2022-12-07T01:13:07;366.57;;;64.10;;
8562;SDS011;16392;52.508;13.468;2022-12-07T01:15:34;365.60;;;64.57;;
8562;SDS011;16392;52.508;13.468;2022-12-07T01:18:04;364.50;;;62.90;;
8562;SDS011;16392;52.508;13.468;2022-12-07T01:20:32;363.00;;;64.17;;
8562;SDS011;16392;52.508;13.468;2022-12-07T01:22:59;364.10;;;66.23;;
8562;SDS011;16392;52.508;13.468;2022-12-07T01:25:28;363.77;;;61.77;;
8562;SDS011;16392;52.508;13.468;2022-12-07T01:27:54;364.03;;;63.80;;
8562;SDS011;16392;52.508;13.468;2022-12-07T01:30:21;360.93;;;63.13;;
8562;SDS011;16392;52.508;13.468;2022-12-07T01:32:47;362.77;;;61.90;;
8562;SDS011;16392;52.508;13.468;2022-12-07T01:35:14;363.73;;;62.30;;
8562;SDS011;16392;52.508;13.468;2022-12-07T01:37:42;367.63;;;65.83;;
8562;SDS011;16392;52.508;13.468;2022-12-07T01:40:09;362.07;;;62.43;;
8562;SDS011;16392;52.508;13.468;2022-12-07T01:42:36;363.03;;;61.87;;
8562;SDS011;16392;52.508;13.468;2022-12-07T01:48:09;363.23;;;62.30;;
8562;SDS011;16392;52.508;13.468;2022-12-07T01:50:38;364.43;;;61.97;;
8562;SDS011;16392;52.508;13.468;2022-12-07T01:53:08;369.00;;;73.77;;
8562;SDS011;16392;52.508;13.468;2022-12-07T01:55:37;364.17;;;62.27;;
8562;SDS011;16392;52.508;13.468;2022-12-07T01:58:07;365.97;;;63.63;;
8562;SDS011;16392;52.508;13.468;2022-12-07T02:00:35;368.27;;;69.33;;
8562;SDS011;16392;52.508;13.468;2022-12-07T02:03:03;368.63;;;65.47;;
8562;SDS011;16392;52.508;13.468;2022-12-07T02:05:32;363.43;;;62.13;;
8562;SDS011;16392;52.508;13.468;2022-12-07T02:08:00;366.30;;;63.43;;
8562;SDS011;16392;52.508;13.468;2022-12-07T02:10:30;368.87;;;63.27;;
8562;SDS011;16392;52.508;13.468;2022-12-07T02:12:58;368.10;;;65.67;;
8562;SDS011;16392;52.508;13.468;2022-12-07T02:15:28;370.07;;;67.80;;
8562;SDS011;16392;52.508;13.468;2022-12-07T02:18:05;363.40;;;61.90;;
8562;SDS011;16392;52.508;13.468;2022-12-07T02:20:41;367.70;;;63.63;;
8562;SDS011;16392;52.508;13.468;2022-12-07T02:23:25;366.30;;;62.53;;
8562;SDS011;16392;52.508;13.468;2022-12-07T02:26:22;363.00;;;61.83;;
8562;SDS011;16392;52.508;13.468;2022-12-07T02:29:10;365.37;;;63.47;;
8562;SDS011;16392;52.508;13.468;2022-12-07T02:31:43;364.03;;;64.03;;
8562;SDS011;16392;52.508;13.468;2022-12-07T02:34:17;368.47;;;69.43;;
8562;SDS011;16392;52.508;13.468;2022-12-07T02:36:50;366.80;;;66.03;;
8562;SDS011;16392;52.508;13.468;2022-12-07T02:39:23;366.57;;;63.00;;
8562;SDS011;16392;52.508;13.468;2022-12-07T02:41:58;364.10;;;61.73;;
8562;SDS011;16392;52.508;13.468;2022-12-07T02:44:30;367.37;;;69.83;;
8562;SDS011;16392;52.508;13.468;2022-12-07T02:46:59;364.50;;;64.93;;
8562;SDS011;16392;52.508;13.468;2022-12-07T02:49:29;364.50;;;65.47;;
8562;SDS011;16392;52.508;13.468;2022-12-07T02:51:56;365.20;;;68.03;;
8562;SDS011;16392;52.508;13.468;2022-12-07T02:54:23;362.87;;;62.23;;
8562;SDS011;16392;52.508;13.468;2022-12-07T02:56:50;362.63;;;63.07;;
8562;SDS011;16392;52.508;13.468;2022-12-07T02:59:25;360.90;;;63.93;;
8562;SDS011;16392;52.508;13.468;2022-12-07T03:02:03;363.37;;;65.53;;
8562;SDS011;16392;52.508;13.468;2022-12-07T03:04:45;359.53;;;60.53;;
8562;SDS011;16392;52.508;13.468;2022-12-07T03:07:21;359.87;;;63.07;;
8562;SDS011;16392;52.508;13.468;2022-12-07T03:09:53;362.87;;;63.67;;
8562;SDS011;16392;52.508;13.468;2022-12-07T03:12:28;361.30;;;66.40;;
8562;SDS011;16392;52.508;13.468;2022-12-07T03:15:02;361.00;;;61.30;;
8562;SDS011;16392;52.508;13.468;2022-12-07T03:17:34;361.23;;;61.93;;
8562;SDS011;16392;52.508;13.468;2022-12-07T03:20:04;364.73;;;72.07;;
8562;SDS011;16392;52.508;13.468;2022-12-07T03:22:33;358.90;;;62.20;;
8562;SDS011;16392;52.508;13.468;2022-12-07T03:25:04;360.80;;;63.80;;
8562;SDS011;16392;52.508;13.468;2022-12-07T03:27:34;360.20;;;63.63;;
8562;SDS011;16392;52.508;13.468;2022-12-07T03:30:07;358.67;;;64.07;;
8562;SDS011;16392;52.508;13.468;2022-12-07T03:32:37;359.03;;;62.57;;
8562;SDS011;16392;52.508;13.468;2022-12-07T03:35:09;358.50;;;61.57;;
8562;SDS011;16392;52.508;13.468;2022-12-07T03:37:43;361.33;;;66.93;;
8562;SDS011;16392;52.508;13.468;2022-12-07T03:40:14;360.53;;;65.13;;
8562;SDS011;16392;52.508;13.468;2022-12-07T03:42:47;360.43;;;62.50;;
8562;SDS011;16392;52.508;13.468;2022-12-07T03:45:16;364.43;;;66.30;;
8562;SDS011;16392;52.508;13.468;2022-12-07T03:47:46;359.80;;;61.53;;
8562;SDS011;16392;52.508;13.468;2022-12-07T03:50:21;360.77;;;62.20;;
8562;SDS011;16392;52.508;13.468;2022-12-07T03:52:55;359.43;;;62.17;;
8562;SDS011;16392;52.508;13.468;2022-12-07T03:55:26;362.13;;;64.07;;
8562;SDS011;16392;52.508;13.468;2022-12-07T03:57:56;359.13;;;61.73;;
8562;SDS011;16392;52.508;13.468;2022-12-07T04:00:27;358.23;;;63.17;;
8562;SDS011;16392;52.508;13.468;2022-12-07T04:02:54;358.83;;;62.83;;
8562;SDS011;16392;52.508;13.468;2022-12-07T04:05:21;358.67;;;62.00;;
8562;SDS011;16392;52.508;13.468;2022-12-07T04:07:48;360.27;;;62.43;;
8562;SDS011;16392;52.508;13.468;2022-12-07T04:10:15;358.67;;;62.43;;
8562;SDS011;16392;52.508;13.468;2022-12-07T04:12:41;357.23;;;60.73;;
8562;SDS011;16392;52.508;13.468;2022-12-07T04:15:08;360.57;;;63.10;;
8562;SDS011;16392;52.508;13.468;2022-12-07T04:17:36;358.93;;;63.67;;
8562;SDS011;16392;52.508;13.468;2022-12-07T04:20:04;361.20;;;63.30;;
8562;SDS011;16392;52.508;13.468;2022-12-07T04:22:32;359.10;;;64.33;;
8562;SDS011;16392;52.508;13.468;2022-12-07T04:24:58;360.00;;;65.50;;
8562;SDS011;16392;52.508;13.468;2022-12-07T04:27:25;359.17;;;65.60;;
8562;SDS011;16392;52.508;13.468;2022-12-07T04:29:51;359.00;;;67.00;;
8562;SDS011;16392;52.508;13.468;2022-12-07T04:32:18;359.97;;;66.50;;
8562;SDS011;16392;52.508;13.468;2022-12-07T04:34:46;358.50;;;65.80;;
8562;SDS011;16392;52.508;13.468;2022-12-07T04:37:13;358.13;;;63.57;;
8562;SDS011;16392;52.508;13.468;2022-12-07T04:39:39;365.33;;;70.27;;
8562;SDS011;16392;52.508;13.468;2022-12-07T04:42:08;360.13;;;68.07;;
8562;SDS011;16392;52.508;13.468;2022-12-07T04:44:35;359.70;;;62.20;;
8562;SDS011;16392;52.508;13.468;2022-12-07T04:47:03;358.10;;;63.87;;
8562;SDS011;16392;52.508;13.468;2022-12-07T04:49:30;359.47;;;66.77;;
8562;SDS011;16392;52.508;13.468;2022-12-07T04:51:58;357.73;;;63.20;;
8562;SDS011;16392;52.508;13.468;2022-12-07T04:54:24;356.33;;;62.93;;
8562;SDS011;16392;52.508;13.468;2022-12-07T04:56:51;357.60;;;63.57;;
8562;SDS011;16392;52.508;13.468;2022-12-07T04:59:18;360.40;;;65.90;;
8562;SDS011;16392;52.508;13.468;2022-12-07T05:01:44;359.70;;;64.60;;
8562;SDS011;16392;52.508;13.468;2022-12-07T05:04:11;358.63;;;65.33;;
8562;SDS011;16392;52.508;13.468;2022-12-07T05:06:39;358.80;;;62.63;;
8562;SDS011;16392;52.508;13.468;2022-12-07T05:09:07;361.80;;;70.10;;
8562;SDS011;16392;52.508;13.468;2022-12-07T05:11:34;358.00;;;64.67;;
8562;SDS011;16392;52.508;13.468;2022-12-07T05:14:04;356.57;;;62.63;;
8562;SDS011;16392;52.508;13.468;2022-12-07T05:16:32;363.30;;;73.63;;
8562;SDS011;16392;52.508;13.468;2022-12-07T05:18:59;355.83;;;61.47;;
8562;SDS011;16392;52.508;13.468;2022-12-07T05:21:26;357.70;;;61.53;;
8562;SDS011;16392;52.508;13.468;2022-12-07T05:23:52;359.03;;;64.50;;
8562;SDS011;16392;52.508;13.468;2022-12-07T05:26:20;359.80;;;64.07;;
8562;SDS011;16392;52.508;13.468;2022-12-07T05:28:49;364.27;;;64.80;;
8562;SDS011;16392;52.508;13.468;2022-12-07T05:31:18;362.47;;;65.43;;
8562;SDS011;16392;52.508;13.468;2022-12-07T05:33:45;362.33;;;62.67;;
8562;SDS011;16392;52.508;13.468;2022-12-07T05:36:12;360.37;;;64.73;;
8562;SDS011;16392;52.508;13.468;2022-12-07T05:38:39;358.83;;;65.07;;
8562;SDS011;16392;52.508;13.468;2022-12-07T05:41:06;362.67;;;67.13;;
8562;SDS011;16392;52.508;13.468;2022-12-07T05:43:55;360.47;;;64.07;;
8562;SDS011;16392;52.508;13.468;2022-12-07T05:46:22;363.77;;;68.50;;
8562;SDS011;16392;52.508;13.468;2022-12-07T05:48:48;362.63;;;64.37;;
8562;SDS011;16392;52.508;13.468;2022-12-07T05:51:15;361.43;;;65.03;;
8562;SDS011;16392;52.508;13.468;2022-12-07T05:53:41;363.50;;;67.47;;
8562;SDS011;16392;52.508;13.468;2022-12-07T05:56:08;370.37;;;70.90;;
8562;SDS011;16392;52.508;13.468;2022-12-07T05:58:35;366.00;;;68.73;;
8562;SDS011;16392;52.508;13.468;2022-12-07T06:01:20;366.50;;;66.40;;
8562;SDS011;16392;52.508;13.468;2022-12-07T06:03:47;364.07;;;63.93;;
8562;SDS011;16392;52.508;13.468;2022-12-07T06:06:13;364.17;;;65.50;;
8562;SDS011;16392;52.508;13.468;2022-12-07T06:08:40;364.37;;;68.67;;
8562;SDS011;16392;52.508;13.468;2022-12-07T06:11:07;367.63;;;71.00;;
8562;SDS011;16392;52.508;13.468;2022-12-07T06:13:51;368.23;;;64.47;;
8562;SDS011;16392;52.508;13.468;2022-12-07T06:16:18;364.03;;;64.43;;
8562;SDS011;16392;52.508;13.468;2022-12-07T06:18:46;364.17;;;64.90;;
8562;SDS011;16392;52.508;13.468;2022-12-07T06:21:13;366.17;;;66.90;;
8562;SDS011;16392;52.508;13.468;2022-12-07T06:23:40;366.37;;;63.40;;
8562;SDS011;16392;52.508;13.468;2022-12-07T06:26:07;366.77;;;64.60;;
8562;SDS011;16392;52.508;13.468;2022-12-07T06:28:34;366.30;;;63.17;;
8562;SDS011;16392;52.508;13.468;2022-12-07T06:31:01;371.73;;;79.60;;
8562;SDS011;16392;52.508;13.468;2022-12-07T06:33:30;365.23;;;66.27;;
8562;SDS011;16392;52.508;13.468;2022-12-07T06:35:58;366.47;;;63.17;;
8562;SDS011;16392;52.508;13.468;2022-12-07T06:38:24;368.13;;;66.50;;
8562;SDS011;16392;52.508;13.468;2022-12-07T06:40:51;372.87;;;75.43;;
8562;SDS011;16392;52.508;13.468;2022-12-07T06:43:18;366.80;;;65.13;;
8562;SDS011;16392;52.508;13.468;2022-12-07T06:45:44;367.37;;;65.57;;
8562;SDS011;16392;52.508;13.468;2022-12-07T06:48:11;366.83;;;69.70;;
8562;SDS011;16392;52.508;13.468;2022-12-07T06:50:38;368.10;;;68.00;;
8562;SDS011;16392;52.508;13.468;2022-12-07T06:53:06;372.63;;;76.70;;
8562;SDS011;16392;52.508;13.468;2022-12-07T06:55:34;371.60;;;68.70;;
8562;SDS011;16392;52.508;13.468;2022-12-07T06:58:00;370.10;;;67.70;;
8562;SDS011;16392;52.508;13.468;2022-12-07T07:00:27;370.23;;;67.47;;
8562;SDS011;16392;52.508;13.468;2022-12-07T07:02:54;368.13;;;66.80;;
8562;SDS011;16392;52.508;13.468;2022-12-07T07:05:21;372.70;;;68.27;;
8562;SDS011;16392;52.508;13.468;2022-12-07T07:07:48;372.80;;;67.33;;
8562;SDS011;16392;52.508;13.468;2022-12-07T07:10:16;369.80;;;68.83;;
8562;SDS011;16392;52.508;13.468;2022-12-07T07:12:42;372.90;;;69.10;;
8562;SDS011;16392;52.508;13.468;2022-12-07T07:15:09;375.50;;;72.10;;
8562;SDS011;16392;52.508;13.468;2022-12-07T07:17:36;375.37;;;76.50;;
8562;SDS011;16392;52.508;13.468;2022-12-07T07:20:03;374.50;;;69.47;;
8562;SDS011;16392;52.508;13.468;2022-12-07T07:22:31;380.90;;;68.57;;
8562;SDS011;16392;52.508;13.468;2022-12-07T07:24:58;372.73;;;67.30;;
8562;SDS011;16392;52.508;13.468;2022-12-07T07:27:25;371.90;;;66.00;;
8562;SDS011;16392;52.508;13.468;2022-12-07T07:29:52;373.40;;;73.93;;
8562;SDS011;16392;52.508;13.468;2022-12-07T07:32:19;372.50;;;68.27;;
8562;SDS011;16392;52.508;13.468;2022-12-07T07:34:46;371.70;;;66.40;;
8562;SDS011;16392;52.508;13.468;2022-12-07T07:37:13;373.80;;;65.43;;
8562;SDS011;16392;52.508;13.468;2022-12-07T07:39:40;375.37;;;70.40;;
8562;SDS011;16392;52.508;13.468;2022-12-07T07:42:07;375.83;;;70.77;;
8562;SDS011;16392;52.508;13.468;2022-12-07T07:44:35;371.77;;;66.90;;
8562;SDS011;16392;52.508;13.468;2022-12-07T07:47:02;374.67;;;73.23;;
8562;SDS011;16392;52.508;13.468;2022-12-07T07:49:28;372.77;;;66.73;;
8562;SDS011;16392;52.508;13.468;2022-12-07T07:51:55;371.93;;;66.87;;
8562;SDS011;16392;52.508;13.468;2022-12-07T07:54:22;376.80;;;66.70;;
8562;SDS011;16392;52.508;13.468;2022-12-07T07:56:49;373.43;;;67.20;;
8562;SDS011;16392;52.508;13.468;2022-12-07T07:59:15;375.70;;;67.93;;
8562;SDS011;16392;52.508;13.468;2022-12-07T08:01:43;377.27;;;67.83;;
8562;SDS011;16392;52.508;13.468;2022-12-07T08:04:10;375.40;;;68.03;;
8562;SDS011;16392;52.508;13.468;2022-12-07T08:06:37;377.50;;;69.40;;
8562;SDS011;16392;52.508;13.468;2022-12-07T08:09:03;380.47;;;66.27;;
8562;SDS011;16392;52.508;13.468;2022-12-07T08:11:31;374.80;;;68.63;;
8562;SDS011;16392;52.508;13.468;2022-12-07T08:13:58;378.23;;;69.30;;
8562;SDS011;16392;52.508;13.468;2022-12-07T08:16:25;378.73;;;66.53;;
8562;SDS011;16392;52.508;13.468;2022-12-07T08:18:53;377.20;;;67.57;;
8562;SDS011;16392;52.508;13.468;2022-12-07T08:21:19;376.00;;;66.93;;
8562;SDS011;16392;52.508;13.468;2022-12-07T08:23:46;375.30;;;66.27;;
8562;SDS011;16392;52.508;13.468;2022-12-07T08:26:14;379.47;;;72.27;;
8562;SDS011;16392;52.508;13.468;2022-12-07T08:28:42;377.80;;;68.60;;
8562;SDS011;16392;52.508;13.468;2022-12-07T08:31:11;377.97;;;66.57;;
8562;SDS011;16392;52.508;13.468;2022-12-07T08:33:39;378.83;;;68.50;;
8562;SDS011;16392;52.508;13.468;2022-12-07T08:36:09;379.07;;;69.10;;
8562;SDS011;16392;52.508;13.468;2022-12-07T08:38:38;380.53;;;68.40;;
8562;SDS011;16392;52.508;13.468;2022-12-07T08:41:06;379.77;;;68.70;;
8562;SDS011;16392;52.508;13.468;2022-12-07T08:43:33;375.37;;;64.67;;
8562;SDS011;16392;52.508;13.468;2022-12-07T08:46:03;376.47;;;64.50;;
8562;SDS011;16392;52.508;13.468;2022-12-07T08:48:36;377.50;;;67.73;;
8562;SDS011;16392;52.508;13.468;2022-12-07T08:51:05;382.07;;;71.37;;
8562;SDS011;16392;52.508;13.468;2022-12-07T08:53:33;382.37;;;64.83;;
8562;SDS011;16392;52.508;13.468;2022-12-07T08:56:01;383.60;;;79.67;;
8562;SDS011;16392;52.508;13.468;2022-12-07T08:58:28;381.93;;;70.97;;
8562;SDS011;16392;52.508;13.468;2022-12-07T09:00:54;381.57;;;69.17;;
8562;SDS011;16392;52.508;13.468;2022-12-07T09:03:21;382.37;;;65.90;;
8562;SDS011;16392;52.508;13.468;2022-12-07T09:05:48;380.80;;;70.80;;
8562;SDS011;16392;52.508;13.468;2022-12-07T09:08:15;379.63;;;68.00;;
8562;SDS011;16392;52.508;13.468;2022-12-07T09:10:43;382.27;;;69.33;;
8562;SDS011;16392;52.508;13.468;2022-12-07T09:13:10;383.33;;;73.97;;
8562;SDS011;16392;52.508;13.468;2022-12-07T09:15:37;382.33;;;70.17;;
8562;SDS011;16392;52.508;13.468;2022-12-07T09:18:03;380.17;;;64.63;;
8562;SDS011;16392;52.508;13.468;2022-12-07T09:20:30;381.17;;;67.50;;
8562;SDS011;16392;52.508;13.468;2022-12-07T09:22:57;381.17;;;67.97;;
8562;SDS011;16392;52.508;13.468;2022-12-07T09:25:23;382.50;;;68.20;;
8562;SDS011;16392;52.508;13.468;2022-12-07T09:27:55;381.33;;;66.73;;
8562;SDS011;16392;52.508;13.468;2022-12-07T09:30:23;380.97;;;68.30;;
8562;SDS011;16392;52.508;13.468;2022-12-07T09:32:50;379.93;;;65.47;;
8562;SDS011;16392;52.508;13.468;2022-12-07T09:35:19;381.03;;;69.93;;
8562;SDS011;16392;52.508;13.468;2022-12-07T09:37:46;379.43;;;64.80;;
8562;SDS011;16392;52.508;13.468;2022-12-07T09:40:13;383.50;;;67.97;;
8562;SDS011;16392;52.508;13.468;2022-12-07T09:42:41;379.90;;;65.60;;
8562;SDS011;16392;52.508;13.468;2022-12-07T09:45:14;382.30;;;71.23;;
8562;SDS011;16392;52.508;13.468;2022-12-07T09:47:43;380.60;;;70.97;;
8562;SDS011;16392;52.508;13.468;2022-12-07T09:50:12;378.07;;;69.33;;
8562;SDS011;16392;52.508;13.468;2022-12-07T09:52:41;379.00;;;65.00;;
8562;SDS011;16392;52.508;13.468;2022-12-07T09:55:11;386.00;;;84.67;;
8562;SDS011;16392;52.508;13.468;2022-12-07T09:57:40;379.57;;;69.23;;
8562;SDS011;16392;52.508;13.468;2022-12-07T10:00:10;378.83;;;67.23;;
8562;SDS011;16392;52.508;13.468;2022-12-07T10:02:42;377.83;;;64.67;;
8562;SDS011;16392;52.508;13.468;2022-12-07T10:05:12;376.40;;;66.17;;
8562;SDS011;16392;52.508;13.468;2022-12-07T10:07:41;376.80;;;64.87;;
8562;SDS011;16392;52.508;13.468;2022-12-07T10:10:12;377.33;;;66.03;;
8562;SDS011;16392;52.508;13.468;2022-12-07T10:12:54;377.47;;;64.50;;
8562;SDS011;16392;52.508;13.468;2022-12-07T10:15:24;376.57;;;66.20;;
8562;SDS011;16392;52.508;13.468;2022-12-07T10:18:15;378.63;;;66.53;;
8562;SDS011;16392;52.508;13.468;2022-12-07T10:20:45;378.37;;;63.80;;
8562;SDS011;16392;52.508;13.468;2022-12-07T10:23:14;379.57;;;65.33;;
8562;SDS011;16392;52.508;13.468;2022-12-07T10:25:42;378.03;;;66.87;;
8562;SDS011;16392;52.508;13.468;2022-12-07T10:28:11;377.73;;;65.33;;
8562;SDS011;16392;52.508;13.468;2022-12-07T10:30:52;385.63;;;84.93;;
8562;SDS011;16392;52.508;13.468;2022-12-07T10:33:30;377.30;;;65.97;;
8562;SDS011;16392;52.508;13.468;2022-12-07T10:35:58;379.17;;;66.40;;
8562;SDS011;16392;52.508;13.468;2022-12-07T10:38:26;378.27;;;65.40;;
8562;SDS011;16392;52.508;13.468;2022-12-07T10:41:05;377.60;;;65.57;;
8562;SDS011;16392;52.508;13.468;2022-12-07T10:43:32;381.30;;;65.60;;
8562;SDS011;16392;52.508;13.468;2022-12-07T10:48:57;391.07;;;69.53;;
8562;SDS011;16392;52.508;13.468;2022-12-07T10:51:30;395.20;;;72.07;;
8562;SDS011;16392;52.508;13.468;2022-12-07T10:54:09;391.80;;;68.53;;
8562;SDS011;16392;52.508;13.468;2022-12-07T10:56:58;389.83;;;66.67;;
8562;SDS011;16392;52.508;13.468;2022-12-07T10:59:50;387.47;;;69.17;;
8562;SDS011;16392;52.508;13.468;2022-12-07T11:02:32;386.37;;;69.43;;
8562;SDS011;16392;52.508;13.468;2022-12-07T11:05:17;385.00;;;67.03;;
8562;SDS011;16392;52.508;13.468;2022-12-07T11:07:52;383.77;;;66.00;;
8562;SDS011;16392;52.508;13.468;2022-12-07T11:10:26;382.77;;;66.33;;
8562;SDS011;16392;52.508;13.468;2022-12-07T11:13:11;382.43;;;66.27;;
8562;SDS011;16392;52.508;13.468;2022-12-07T11:15:53;384.70;;;70.90;;
8562;SDS011;16392;52.508;13.468;2022-12-07T11:18:32;383.87;;;69.40;;
8562;SDS011;16392;52.508;13.468;2022-12-07T11:21:09;382.47;;;67.90;;
8562;SDS011;16392;52.508;13.468;2022-12-07T11:23:44;383.63;;;64.87;;
8562;SDS011;16392;52.508;13.468;2022-12-07T11:26:17;383.07;;;67.87;;
8562;SDS011;16392;52.508;13.468;2022-12-07T11:29:02;383.53;;;65.90;;
8562;SDS011;16392;52.508;13.468;2022-12-07T11:31:44;387.43;;;73.63;;
8562;SDS011;16392;52.508;13.468;2022-12-07T11:34:22;384.57;;;65.73;;
8562;SDS011;16392;52.508;13.468;2022-12-07T11:36:54;384.63;;;64.70;;
8562;SDS011;16392;52.508;13.468;2022-12-07T11:39:23;384.93;;;69.23;;
8562;SDS011;16392;52.508;13.468;2022-12-07T11:41:56;385.37;;;66.23;;
8562;SDS011;16392;52.508;13.468;2022-12-07T11:44:30;384.37;;;64.47;;
8562;SDS011;16392;52.508;13.468;2022-12-07T11:47:05;390.13;;;77.97;;
8562;SDS011;16392;52.508;13.468;2022-12-07T11:49:40;385.67;;;69.80;;
8562;SDS011;16392;52.508;13.468;2022-12-07T11:52:12;387.17;;;74.13;;
8562;SDS011;16392;52.508;13.468;2022-12-07T11:54:45;384.83;;;67.97;;
8562;SDS011;16392;52.508;13.468;2022-12-07T11:57:15;386.13;;;71.47;;
8562;SDS011;16392;52.508;13.468;2022-12-07T11:59:46;388.33;;;69.67;;
8562;SDS011;16392;52.508;13.468;2022-12-07T12:02:19;386.73;;;68.57;;
8562;SDS011;16392;52.508;13.468;2022-12-07T12:04:53;389.40;;;69.23;;
8562;SDS011;16392;52.508;13.468;2022-12-07T12:07:22;388.83;;;69.57;;
8562;SDS011;16392;52.508;13.468;2022-12-07T12:09:51;388.60;;;67.93;;
8562;SDS011;16392;52.508;13.468;2022-12-07T12:15:34;387.33;;;67.93;;
8562;SDS011;16392;52.508;13.468;2022-12-07T12:18:12;386.73;;;67.97;;
8562;SDS011;16392;52.508;13.468;2022-12-07T12:20:54;385.57;;;66.83;;
8562;SDS011;16392;52.508;13.468;2022-12-07T12:23:26;389.63;;;69.93;;
8562;SDS011;16392;52.508;13.468;2022-12-07T12:26:01;389.17;;;69.40;;
8562;SDS011;16392;52.508;13.468;2022-12-07T12:28:30;389.93;;;66.77;;
8562;SDS011;16392;52.508;13.468;2022-12-07T12:31:05;391.30;;;69.60;;
8562;SDS011;16392;52.508;13.468;2022-12-07T12:33:35;391.07;;;67.37;;
8562;SDS011;16392;52.508;13.468;2022-12-07T12:36:24;394.47;;;71.33;;
8562;SDS011;16392;52.508;13.468;2022-12-07T12:41:51;391.17;;;78.97;;
8562;SDS011;16392;52.508;13.468;2022-12-07T12:47:42;389.20;;;67.03;;
8562;SDS011;16392;52.508;13.468;2022-12-07T12:50:31;391.30;;;70.30;;
8562;SDS011;16392;52.508;13.468;2022-12-07T12:53:14;392.30;;;69.00;;
8562;SDS011;16392;52.508;13.468;2022-12-07T12:58:49;388.30;;;68.00;;
8562;SDS011;16392;52.508;13.468;2022-12-07T13:01:37;388.70;;;66.40;;
8562;SDS011;16392;52.508;13.468;2022-12-07T13:07:08;390.70;;;75.47;;
8562;SDS011;16392;52.508;13.468;2022-12-07T13:09:39;389.93;;;68.20;;
8562;SDS011;16392;52.508;13.468;2022-12-07T13:12:12;389.37;;;67.67;;
8562;SDS011;16392;52.508;13.468;2022-12-07T13:23:16;388.30;;;66.37;;
8562;SDS011;16392;52.508;13.468;2022-12-07T13:25:53;390.27;;;70.00;;
8562;SDS011;16392;52.508;13.468;2022-12-07T13:28:25;392.50;;;75.47;;
8562;SDS011;16392;52.508;13.468;2022-12-07T13:33:43;390.13;;;71.33;;
8562;SDS011;16392;52.508;13.468;2022-12-07T13:36:13;387.63;;;68.13;;
8562;SDS011;16392;52.508;13.468;2022-12-07T13:38:48;389.13;;;70.33;;
8562;SDS011;16392;52.508;13.468;2022-12-07T13:41:19;388.27;;;66.90;;
8562;SDS011;16392;52.508;13.468;2022-12-07T13:43:51;388.63;;;66.23;;
8562;SDS011;16392;52.508;13.468;2022-12-07T13:49:19;390.03;;;71.63;;
8562;SDS011;16392;52.508;13.468;2022-12-07T13:51:47;390.77;;;71.43;;
8562;SDS011;16392;52.508;13.468;2022-12-07T13:54:14;389.80;;;70.30;;
8562;SDS011;16392;52.508;13.468;2022-12-07T13:56:43;388.23;;;69.90;;
8562;SDS011;16392;52.508;13.468;2022-12-07T13:59:14;388.70;;;67.53;;
8562;SDS011;16392;52.508;13.468;2022-12-07T14:01:43;388.50;;;67.80;;
8562;SDS011;16392;52.508;13.468;2022-12-07T14:04:18;388.70;;;69.97;;
8562;SDS011;16392;52.508;13.468;2022-12-07T14:06:53;389.13;;;70.37;;
8562;SDS011;16392;52.508;13.468;2022-12-07T14:09:20;389.27;;;69.93;;
8562;SDS011;16392;52.508;13.468;2022-12-07T14:11:50;391.63;;;72.93;;
8562;SDS011;16392;52.508;13.468;2022-12-07T14:14:20;390.20;;;69.90;;
8562;SDS011;16392;52.508;13.468;2022-12-07T14:16:58;389.03;;;70.77;;
8562;SDS011;16392;52.508;13.468;2022-12-07T14:19:44;388.97;;;68.97;;
8562;SDS011;16392;52.508;13.468;2022-12-07T14:22:23;388.63;;;69.00;;
8562;SDS011;16392;52.508;13.468;2022-12-07T14:24:58;388.00;;;67.13;;
8562;SDS011;16392;52.508;13.468;2022-12-07T14:27:31;388.53;;;69.07;;
8562;SDS011;16392;52.508;13.468;2022-12-07T14:30:01;391.40;;;77.20;;
8562;SDS011;16392;52.508;13.468;2022-12-07T14:32:28;388.37;;;68.70;;
8562;SDS011;16392;52.508;13.468;2022-12-07T14:34:58;389.30;;;71.43;;
8562;SDS011;16392;52.508;13.468;2022-12-07T14:37:27;389.17;;;71.20;;
8562;SDS011;16392;52.508;13.468;2022-12-07T14:39:55;389.57;;;77.97;;
8562;SDS011;16392;52.508;13.468;2022-12-07T14:42:23;387.37;;;71.63;;
8562;SDS011;16392;52.508;13.468;2022-12-07T14:44:54;388.33;;;71.50;;
8562;SDS011;16392;52.508;13.468;2022-12-07T14:47:21;385.30;;;70.00;;
8562;SDS011;16392;52.508;13.468;2022-12-07T14:49:48;383.60;;;66.53;;
8562;SDS011;16392;52.508;13.468;2022-12-07T14:52:16;383.03;;;66.40;;
8562;SDS011;16392;52.508;13.468;2022-12-07T14:54:45;382.07;;;68.23;;
8562;SDS011;16392;52.508;13.468;2022-12-07T14:57:12;381.10;;;64.90;;
8562;SDS011;16392;52.508;13.468;2022-12-07T14:59:39;384.77;;;72.83;;
8562;SDS011;16392;52.508;13.468;2022-12-07T15:02:08;382.53;;;68.23;;